sensor_id;sensor_type;location;lat;lon;timestamp;P1;durP1;ratioP1;P2;durP2;ratioP2
3133;SDS011;1577;49.912;10.924;2022-12-18T00:01:57;106.43;;;19.70;;
3133;SDS011;1577;49.912;10.924;2022-12-18T00:04:29;88.80;;;18.25;;
3133;SDS011;1577;49.912;10.924;2022-12-18T00:06:55;95.65;;;18.35;;
3133;SDS011;1577;49.912;10.924;2022-12-18T00:09:24;81.67;;;16.57;;
3133;SDS011;1577;49.912;10.924;2022-12-18T00:11:49;90.63;;;17.63;;
3133;SDS011;1577;49.912;10.924;2022-12-18T00:14:15;87.70;;;17.50;;
3133;SDS011;1577;49.912;10.924;2022-12-18T00:16:43;77.93;;;13.85;;
3133;SDS011;1577;49.912;10.924;2022-12-18T00:19:10;80.65;;;16.88;;
3133;SDS011;1577;49.912;10.924;2022-12-18T00:21:39;91.80;;;17.50;;
3133;SDS011;1577;49.912;10.924;2022-12-18T00:24:06;91.07;;;18.95;;
3133;SDS011;1577;49.912;10.924;2022-12-18T00:26:32;87.63;;;15.67;;
3133;SDS011;1577;49.912;10.924;2022-12-18T00:29:00;83.18;;;17.27;;
3133;SDS011;1577;49.912;10.924;2022-12-18T00:31:28;83.70;;;15.52;;
3133;SDS011;1577;49.912;10.924;2022-12-18T00:33:54;88.90;;;16.90;;
3133;SDS011;1577;49.912;10.924;2022-12-18T00:36:24;91.10;;;17.98;;
3133;SDS011;1577;49.912;10.924;2022-12-18T00:38:51;89.93;;;17.20;;
3133;SDS011;1577;49.912;10.924;2022-12-18T00:41:18;84.95;;;17.85;;
3133;SDS011;1577;49.912;10.924;2022-12-18T00:44:03;78.03;;;15.80;;
3133;SDS011;1577;49.912;10.924;2022-12-18T00:46:33;81.57;;;14.85;;
3133;SDS011;1577;49.912;10.924;2022-12-18T00:48:59;91.90;;;18.30;;
3133;SDS011;1577;49.912;10.924;2022-12-18T00:51:24;83.77;;;17.03;;
3133;SDS011;1577;49.912;10.924;2022-12-18T00:53:50;89.93;;;17.60;;
3133;SDS011;1577;49.912;10.924;2022-12-18T00:56:25;90.77;;;19.53;;
3133;SDS011;1577;49.912;10.924;2022-12-18T00:58:51;87.68;;;17.73;;
3133;SDS011;1577;49.912;10.924;2022-12-18T01:01:17;88.43;;;19.17;;
3133;SDS011;1577;49.912;10.924;2022-12-18T01:03:43;88.47;;;16.50;;
3133;SDS011;1577;49.912;10.924;2022-12-18T01:06:11;87.75;;;16.92;;
3133;SDS011;1577;49.912;10.924;2022-12-18T01:08:38;90.72;;;19.27;;
3133;SDS011;1577;49.912;10.924;2022-12-18T01:11:07;88.57;;;19.17;;
3133;SDS011;1577;49.912;10.924;2022-12-18T01:13:34;96.43;;;18.08;;
3133;SDS011;1577;49.912;10.924;2022-12-18T01:16:00;86.47;;;16.00;;
3133;SDS011;1577;49.912;10.924;2022-12-18T01:18:26;95.90;;;16.40;;
3133;SDS011;1577;49.912;10.924;2022-12-18T01:20:51;86.93;;;17.60;;
3133;SDS011;1577;49.912;10.924;2022-12-18T01:23:20;77.67;;;16.57;;
3133;SDS011;1577;49.912;10.924;2022-12-18T01:25:45;85.53;;;16.95;;
3133;SDS011;1577;49.912;10.924;2022-12-18T01:28:11;84.13;;;17.33;;
3133;SDS011;1577;49.912;10.924;2022-12-18T01:30:37;89.23;;;16.43;;
3133;SDS011;1577;49.912;10.924;2022-12-18T01:33:05;85.40;;;15.00;;
3133;SDS011;1577;49.912;10.924;2022-12-18T01:35:40;78.50;;;16.35;;
3133;SDS011;1577;49.912;10.924;2022-12-18T01:38:06;84.20;;;16.55;;
3133;SDS011;1577;49.912;10.924;2022-12-18T01:40:32;83.13;;;16.25;;
3133;SDS011;1577;49.912;10.924;2022-12-18T01:42:58;90.00;;;17.53;;
3133;SDS011;1577;49.912;10.924;2022-12-18T01:45:27;83.37;;;16.70;;
3133;SDS011;1577;49.912;10.924;2022-12-18T01:47:55;80.22;;;15.57;;
3133;SDS011;1577;49.912;10.924;2022-12-18T01:50:33;80.93;;;15.82;;
3133;SDS011;1577;49.912;10.924;2022-12-18T01:53:07;85.70;;;16.02;;
3133;SDS011;1577;49.912;10.924;2022-12-18T01:55:55;83.10;;;17.27;;
3133;SDS011;1577;49.912;10.924;2022-12-18T01:58:24;89.93;;;18.48;;
3133;SDS011;1577;49.912;10.924;2022-12-18T02:01:08;85.25;;;16.88;;
3133;SDS011;1577;49.912;10.924;2022-12-18T02:03:34;78.38;;;15.43;;
3133;SDS011;1577;49.912;10.924;2022-12-18T02:19:15;85.67;;;17.40;;
3133;SDS011;1577;49.912;10.924;2022-12-18T02:22:07;83.28;;;17.63;;
3133;SDS011;1577;49.912;10.924;2022-12-18T02:24:54;79.75;;;14.25;;
3133;SDS011;1577;49.912;10.924;2022-12-18T02:27:36;78.47;;;14.48;;
3133;SDS011;1577;49.912;10.924;2022-12-18T02:30:05;87.22;;;18.02;;
3133;SDS011;1577;49.912;10.924;2022-12-18T02:32:36;83.65;;;17.00;;
3133;SDS011;1577;49.912;10.924;2022-12-18T02:35:09;78.32;;;16.20;;
3133;SDS011;1577;49.912;10.924;2022-12-18T02:37:39;74.85;;;13.57;;
3133;SDS011;1577;49.912;10.924;2022-12-18T02:40:07;88.32;;;18.13;;
3133;SDS011;1577;49.912;10.924;2022-12-18T02:42:34;85.15;;;15.10;;
3133;SDS011;1577;49.912;10.924;2022-12-18T02:45:00;80.57;;;16.90;;
3133;SDS011;1577;49.912;10.924;2022-12-18T02:47:28;88.03;;;17.90;;
3133;SDS011;1577;49.912;10.924;2022-12-18T03:00:41;83.20;;;15.20;;
3133;SDS011;1577;49.912;10.924;2022-12-18T03:03:16;79.68;;;15.35;;
3133;SDS011;1577;49.912;10.924;2022-12-18T03:06:08;87.95;;;16.92;;
3133;SDS011;1577;49.912;10.924;2022-12-18T03:08:41;89.35;;;18.55;;
3133;SDS011;1577;49.912;10.924;2022-12-18T03:11:12;79.82;;;15.52;;
3133;SDS011;1577;49.912;10.924;2022-12-18T03:13:45;84.80;;;18.08;;
3133;SDS011;1577;49.912;10.924;2022-12-18T03:16:23;76.82;;;14.88;;
3133;SDS011;1577;49.912;10.924;2022-12-18T03:21:53;93.82;;;16.35;;
3133;SDS011;1577;49.912;10.924;2022-12-18T03:24:21;80.95;;;14.55;;
3133;SDS011;1577;49.912;10.924;2022-12-18T03:26:50;89.95;;;16.77;;
3133;SDS011;1577;49.912;10.924;2022-12-18T03:29:21;83.78;;;16.00;;
3133;SDS011;1577;49.912;10.924;2022-12-18T03:32:19;78.43;;;16.92;;
3133;SDS011;1577;49.912;10.924;2022-12-18T03:34:53;82.20;;;16.13;;
3133;SDS011;1577;49.912;10.924;2022-12-18T03:37:25;79.05;;;17.08;;
3133;SDS011;1577;49.912;10.924;2022-12-18T03:39:51;81.47;;;15.83;;
3133;SDS011;1577;49.912;10.924;2022-12-18T03:44:59;92.35;;;15.10;;
3133;SDS011;1577;49.912;10.924;2022-12-18T03:47:39;82.60;;;13.95;;
3133;SDS011;1577;49.912;10.924;2022-12-18T03:53:39;78.65;;;15.23;;
3133;SDS011;1577;49.912;10.924;2022-12-18T03:56:25;75.28;;;12.70;;
3133;SDS011;1577;49.912;10.924;2022-12-18T03:58:54;82.88;;;15.38;;
3133;SDS011;1577;49.912;10.924;2022-12-18T04:01:23;80.15;;;13.40;;
3133;SDS011;1577;49.912;10.924;2022-12-18T04:03:58;80.72;;;13.80;;
3133;SDS011;1577;49.912;10.924;2022-12-18T04:06:28;76.70;;;14.70;;
3133;SDS011;1577;49.912;10.924;2022-12-18T04:08:56;81.03;;;13.43;;
3133;SDS011;1577;49.912;10.924;2022-12-18T04:11:22;76.40;;;12.13;;
3133;SDS011;1577;49.912;10.924;2022-12-18T04:13:52;82.10;;;16.70;;
3133;SDS011;1577;49.912;10.924;2022-12-18T04:16:25;73.90;;;13.05;;
3133;SDS011;1577;49.912;10.924;2022-12-18T04:18:51;81.28;;;15.45;;
3133;SDS011;1577;49.912;10.924;2022-12-18T04:21:18;77.22;;;15.40;;
3133;SDS011;1577;49.912;10.924;2022-12-18T04:23:44;81.80;;;15.48;;
3133;SDS011;1577;49.912;10.924;2022-12-18T04:26:10;78.93;;;15.77;;
3133;SDS011;1577;49.912;10.924;2022-12-18T04:28:36;84.53;;;17.20;;
3133;SDS011;1577;49.912;10.924;2022-12-18T04:31:04;81.95;;;15.77;;
3133;SDS011;1577;49.912;10.924;2022-12-18T04:33:30;75.93;;;12.60;;
3133;SDS011;1577;49.912;10.924;2022-12-18T04:35:56;87.60;;;14.83;;
3133;SDS011;1577;49.912;10.924;2022-12-18T04:38:24;82.80;;;15.40;;
3133;SDS011;1577;49.912;10.924;2022-12-18T04:40:50;80.10;;;14.55;;
3133;SDS011;1577;49.912;10.924;2022-12-18T04:43:16;82.63;;;16.02;;
3133;SDS011;1577;49.912;10.924;2022-12-18T04:45:42;74.70;;;13.70;;
3133;SDS011;1577;49.912;10.924;2022-12-18T04:48:07;80.07;;;14.90;;
3133;SDS011;1577;49.912;10.924;2022-12-18T04:50:33;77.87;;;13.93;;
3133;SDS011;1577;49.912;10.924;2022-12-18T04:52:59;79.53;;;14.50;;
3133;SDS011;1577;49.912;10.924;2022-12-18T04:55:24;86.00;;;16.43;;
3133;SDS011;1577;49.912;10.924;2022-12-18T04:57:50;77.82;;;17.17;;
3133;SDS011;1577;49.912;10.924;2022-12-18T05:00:16;83.40;;;16.23;;
3133;SDS011;1577;49.912;10.924;2022-12-18T05:02:42;77.73;;;13.70;;
3133;SDS011;1577;49.912;10.924;2022-12-18T05:05:09;80.80;;;15.75;;
3133;SDS011;1577;49.912;10.924;2022-12-18T05:07:35;86.03;;;16.60;;
3133;SDS011;1577;49.912;10.924;2022-12-18T05:10:00;75.73;;;13.67;;
3133;SDS011;1577;49.912;10.924;2022-12-18T05:12:30;78.65;;;16.63;;
3133;SDS011;1577;49.912;10.924;2022-12-18T05:14:56;84.55;;;13.32;;
3133;SDS011;1577;49.912;10.924;2022-12-18T05:17:22;81.50;;;16.20;;
3133;SDS011;1577;49.912;10.924;2022-12-18T05:19:51;75.97;;;13.00;;
3133;SDS011;1577;49.912;10.924;2022-12-18T05:22:17;73.70;;;13.40;;
3133;SDS011;1577;49.912;10.924;2022-12-18T05:24:42;80.40;;;15.80;;
3133;SDS011;1577;49.912;10.924;2022-12-18T05:27:08;98.20;;;13.77;;
3133;SDS011;1577;49.912;10.924;2022-12-18T05:29:33;76.33;;;13.33;;
3133;SDS011;1577;49.912;10.924;2022-12-18T05:32:02;77.03;;;13.65;;
3133;SDS011;1577;49.912;10.924;2022-12-18T05:34:28;81.83;;;16.43;;
3133;SDS011;1577;49.912;10.924;2022-12-18T05:36:53;74.40;;;15.10;;
3133;SDS011;1577;49.912;10.924;2022-12-18T05:39:19;77.97;;;13.10;;
3133;SDS011;1577;49.912;10.924;2022-12-18T05:41:45;78.17;;;13.83;;
3133;SDS011;1577;49.912;10.924;2022-12-18T05:44:10;77.00;;;11.80;;
3133;SDS011;1577;49.912;10.924;2022-12-18T05:46:45;74.00;;;13.32;;
3133;SDS011;1577;49.912;10.924;2022-12-18T05:49:11;69.67;;;12.67;;
3133;SDS011;1577;49.912;10.924;2022-12-18T05:51:36;84.47;;;15.53;;
3133;SDS011;1577;49.912;10.924;2022-12-18T05:54:02;76.50;;;10.97;;
3133;SDS011;1577;49.912;10.924;2022-12-18T05:56:28;73.80;;;13.13;;
3133;SDS011;1577;49.912;10.924;2022-12-18T05:58:54;78.90;;;15.10;;
3133;SDS011;1577;49.912;10.924;2022-12-18T06:01:21;73.25;;;14.13;;
3133;SDS011;1577;49.912;10.924;2022-12-18T06:03:49;75.85;;;11.90;;
3133;SDS011;1577;49.912;10.924;2022-12-18T06:06:16;74.28;;;10.90;;
3133;SDS011;1577;49.912;10.924;2022-12-18T06:08:47;77.88;;;13.73;;
3133;SDS011;1577;49.912;10.924;2022-12-18T06:11:15;76.05;;;13.90;;
3133;SDS011;1577;49.912;10.924;2022-12-18T06:13:42;79.80;;;14.40;;
3133;SDS011;1577;49.912;10.924;2022-12-18T06:16:08;81.23;;;13.17;;
3133;SDS011;1577;49.912;10.924;2022-12-18T06:18:37;74.87;;;13.07;;
3133;SDS011;1577;49.912;10.924;2022-12-18T06:21:02;71.10;;;11.52;;
3133;SDS011;1577;49.912;10.924;2022-12-18T06:23:28;79.77;;;14.80;;
3133;SDS011;1577;49.912;10.924;2022-12-18T06:25:54;76.03;;;12.67;;
3133;SDS011;1577;49.912;10.924;2022-12-18T06:28:19;72.03;;;14.73;;
3133;SDS011;1577;49.912;10.924;2022-12-18T06:30:48;75.40;;;14.57;;
3133;SDS011;1577;49.912;10.924;2022-12-18T06:33:15;75.30;;;12.85;;
3133;SDS011;1577;49.912;10.924;2022-12-18T06:35:41;74.38;;;13.10;;
3133;SDS011;1577;49.912;10.924;2022-12-18T06:38:06;81.13;;;15.30;;
3133;SDS011;1577;49.912;10.924;2022-12-18T06:40:32;69.83;;;10.03;;
3133;SDS011;1577;49.912;10.924;2022-12-18T06:42:59;84.90;;;13.60;;
3133;SDS011;1577;49.912;10.924;2022-12-18T06:45:25;73.63;;;11.15;;
3133;SDS011;1577;49.912;10.924;2022-12-18T06:47:50;70.47;;;12.10;;
3133;SDS011;1577;49.912;10.924;2022-12-18T06:50:16;76.57;;;12.93;;
3133;SDS011;1577;49.912;10.924;2022-12-18T06:52:42;72.97;;;13.27;;
3133;SDS011;1577;49.912;10.924;2022-12-18T06:55:09;69.55;;;11.85;;
3133;SDS011;1577;49.912;10.924;2022-12-18T06:57:36;77.97;;;13.73;;
3133;SDS011;1577;49.912;10.924;2022-12-18T07:00:02;70.25;;;10.13;;
3133;SDS011;1577;49.912;10.924;2022-12-18T07:02:29;83.15;;;13.90;;
3133;SDS011;1577;49.912;10.924;2022-12-18T07:04:55;73.20;;;12.77;;
3133;SDS011;1577;49.912;10.924;2022-12-18T07:07:20;75.60;;;13.03;;
3133;SDS011;1577;49.912;10.924;2022-12-18T07:09:46;75.57;;;12.80;;
3133;SDS011;1577;49.912;10.924;2022-12-18T07:12:11;70.27;;;12.10;;
3133;SDS011;1577;49.912;10.924;2022-12-18T07:14:37;73.33;;;15.07;;
3133;SDS011;1577;49.912;10.924;2022-12-18T07:17:03;74.50;;;14.00;;
3133;SDS011;1577;49.912;10.924;2022-12-18T07:19:29;65.87;;;10.23;;
3133;SDS011;1577;49.912;10.924;2022-12-18T07:21:54;80.97;;;13.55;;
3133;SDS011;1577;49.912;10.924;2022-12-18T07:24:20;73.80;;;12.33;;
3133;SDS011;1577;49.912;10.924;2022-12-18T07:26:46;76.20;;;10.60;;
3133;SDS011;1577;49.912;10.924;2022-12-18T07:29:13;69.15;;;11.90;;
3133;SDS011;1577;49.912;10.924;2022-12-18T07:31:39;70.60;;;12.07;;
3133;SDS011;1577;49.912;10.924;2022-12-18T07:34:04;70.47;;;11.83;;
3133;SDS011;1577;49.912;10.924;2022-12-18T07:36:30;75.50;;;12.53;;
3133;SDS011;1577;49.912;10.924;2022-12-18T07:38:55;70.33;;;12.10;;
3133;SDS011;1577;49.912;10.924;2022-12-18T07:41:21;69.90;;;10.47;;
3133;SDS011;1577;49.912;10.924;2022-12-18T07:43:47;70.40;;;11.47;;
3133;SDS011;1577;49.912;10.924;2022-12-18T07:46:15;77.43;;;12.35;;
3133;SDS011;1577;49.912;10.924;2022-12-18T07:48:41;76.13;;;13.43;;
3133;SDS011;1577;49.912;10.924;2022-12-18T07:51:08;71.75;;;12.70;;
3133;SDS011;1577;49.912;10.924;2022-12-18T07:53:34;67.83;;;13.53;;
3133;SDS011;1577;49.912;10.924;2022-12-18T07:56:02;75.90;;;12.20;;
3133;SDS011;1577;49.912;10.924;2022-12-18T07:58:30;74.40;;;11.60;;
3133;SDS011;1577;49.912;10.924;2022-12-18T08:01:03;75.25;;;12.27;;
3133;SDS011;1577;49.912;10.924;2022-12-18T08:03:33;72.00;;;14.10;;
3133;SDS011;1577;49.912;10.924;2022-12-18T08:06:00;72.63;;;13.25;;
3133;SDS011;1577;49.912;10.924;2022-12-18T08:08:27;72.40;;;13.65;;
3133;SDS011;1577;49.912;10.924;2022-12-18T08:10:53;91.10;;;15.65;;
3133;SDS011;1577;49.912;10.924;2022-12-18T08:13:18;79.27;;;14.73;;
3133;SDS011;1577;49.912;10.924;2022-12-18T08:15:44;74.30;;;14.63;;
3133;SDS011;1577;49.912;10.924;2022-12-18T08:18:10;79.87;;;15.80;;
3133;SDS011;1577;49.912;10.924;2022-12-18T08:20:35;87.00;;;16.10;;
3133;SDS011;1577;49.912;10.924;2022-12-18T08:23:01;82.53;;;17.20;;
3133;SDS011;1577;49.912;10.924;2022-12-18T08:25:26;81.77;;;17.33;;
3133;SDS011;1577;49.912;10.924;2022-12-18T08:27:52;87.60;;;18.53;;
3133;SDS011;1577;49.912;10.924;2022-12-18T08:30:18;100.07;;;21.10;;
3133;SDS011;1577;49.912;10.924;2022-12-18T08:32:44;80.47;;;18.53;;
3133;SDS011;1577;49.912;10.924;2022-12-18T08:35:09;88.33;;;18.07;;
3133;SDS011;1577;49.912;10.924;2022-12-18T08:37:39;89.88;;;21.48;;
3133;SDS011;1577;49.912;10.924;2022-12-18T08:40:05;100.70;;;22.67;;
3133;SDS011;1577;49.912;10.924;2022-12-18T08:42:31;84.90;;;19.33;;
3133;SDS011;1577;49.912;10.924;2022-12-18T08:45:15;81.53;;;17.73;;
3133;SDS011;1577;49.912;10.924;2022-12-18T08:47:42;80.78;;;18.23;;
3133;SDS011;1577;49.912;10.924;2022-12-18T08:50:09;81.53;;;17.73;;
3133;SDS011;1577;49.912;10.924;2022-12-18T08:52:34;98.50;;;17.02;;
3133;SDS011;1577;49.912;10.924;2022-12-18T08:55:00;85.23;;;18.90;;
3133;SDS011;1577;49.912;10.924;2022-12-18T08:57:26;81.87;;;18.20;;
3133;SDS011;1577;49.912;10.924;2022-12-18T08:59:51;84.27;;;19.30;;
3133;SDS011;1577;49.912;10.924;2022-12-18T09:02:17;90.60;;;17.07;;
3133;SDS011;1577;49.912;10.924;2022-12-18T09:04:42;84.33;;;19.90;;
3133;SDS011;1577;49.912;10.924;2022-12-18T09:07:08;107.73;;;28.60;;
3133;SDS011;1577;49.912;10.924;2022-12-18T09:09:34;92.67;;;22.50;;
3133;SDS011;1577;49.912;10.924;2022-12-18T09:12:00;79.95;;;18.33;;
3133;SDS011;1577;49.912;10.924;2022-12-18T09:14:26;86.53;;;19.30;;
3133;SDS011;1577;49.912;10.924;2022-12-18T09:16:51;76.20;;;16.50;;
3133;SDS011;1577;49.912;10.924;2022-12-18T09:19:17;81.40;;;17.87;;
3133;SDS011;1577;49.912;10.924;2022-12-18T09:21:42;89.60;;;21.90;;
3133;SDS011;1577;49.912;10.924;2022-12-18T09:24:09;94.67;;;19.50;;
3133;SDS011;1577;49.912;10.924;2022-12-18T09:26:38;93.65;;;18.95;;
3133;SDS011;1577;49.912;10.924;2022-12-18T09:29:04;84.10;;;17.47;;
3133;SDS011;1577;49.912;10.924;2022-12-18T09:31:32;84.20;;;19.23;;
3133;SDS011;1577;49.912;10.924;2022-12-18T09:33:58;84.20;;;19.40;;
3133;SDS011;1577;49.912;10.924;2022-12-18T09:36:24;80.40;;;15.57;;
3133;SDS011;1577;49.912;10.924;2022-12-18T09:38:50;80.33;;;16.30;;
3133;SDS011;1577;49.912;10.924;2022-12-18T09:46:53;85.93;;;17.50;;
3133;SDS011;1577;49.912;10.924;2022-12-18T09:49:44;75.43;;;15.70;;
3133;SDS011;1577;49.912;10.924;2022-12-18T09:52:14;77.57;;;17.00;;
3133;SDS011;1577;49.912;10.924;2022-12-18T09:54:45;82.10;;;16.88;;
3133;SDS011;1577;49.912;10.924;2022-12-18T09:57:19;81.75;;;17.50;;
3133;SDS011;1577;49.912;10.924;2022-12-18T09:59:53;75.15;;;16.25;;
3133;SDS011;1577;49.912;10.924;2022-12-18T10:02:22;72.97;;;13.60;;
3133;SDS011;1577;49.912;10.924;2022-12-18T10:04:54;86.40;;;16.25;;
3133;SDS011;1577;49.912;10.924;2022-12-18T10:07:32;79.60;;;14.82;;
3133;SDS011;1577;49.912;10.924;2022-12-18T10:10:17;85.68;;;17.10;;
3133;SDS011;1577;49.912;10.924;2022-12-18T10:13:14;88.00;;;19.98;;
3133;SDS011;1577;49.912;10.924;2022-12-18T10:21:32;77.85;;;17.23;;
3133;SDS011;1577;49.912;10.924;2022-12-18T10:27:11;80.57;;;14.77;;
3133;SDS011;1577;49.912;10.924;2022-12-18T10:29:40;79.25;;;14.80;;
3133;SDS011;1577;49.912;10.924;2022-12-18T10:32:16;79.65;;;15.30;;
3133;SDS011;1577;49.912;10.924;2022-12-18T10:34:54;78.88;;;14.90;;
3133;SDS011;1577;49.912;10.924;2022-12-18T10:37:23;81.25;;;15.88;;
3133;SDS011;1577;49.912;10.924;2022-12-18T10:40:07;90.18;;;19.23;;
3133;SDS011;1577;49.912;10.924;2022-12-18T10:42:40;87.45;;;18.95;;
3133;SDS011;1577;49.912;10.924;2022-12-18T10:45:14;80.30;;;16.55;;
3133;SDS011;1577;49.912;10.924;2022-12-18T10:47:50;81.13;;;16.15;;
3133;SDS011;1577;49.912;10.924;2022-12-18T10:50:19;83.82;;;16.85;;
3133;SDS011;1577;49.912;10.924;2022-12-18T10:52:53;83.68;;;16.70;;
3133;SDS011;1577;49.912;10.924;2022-12-18T10:55:20;80.20;;;17.02;;
3133;SDS011;1577;49.912;10.924;2022-12-18T10:57:46;77.18;;;16.80;;
3133;SDS011;1577;49.912;10.924;2022-12-18T11:00:20;86.03;;;16.17;;
3133;SDS011;1577;49.912;10.924;2022-12-18T11:02:46;81.43;;;16.90;;
3133;SDS011;1577;49.912;10.924;2022-12-18T11:08:11;79.60;;;13.98;;
3133;SDS011;1577;49.912;10.924;2022-12-18T11:10:47;81.40;;;15.05;;
3133;SDS011;1577;49.912;10.924;2022-12-18T11:13:17;77.50;;;13.40;;
3133;SDS011;1577;49.912;10.924;2022-12-18T11:15:45;83.88;;;13.93;;
3133;SDS011;1577;49.912;10.924;2022-12-18T11:18:54;80.83;;;15.73;;
3133;SDS011;1577;49.912;10.924;2022-12-18T11:21:08;83.40;;;14.60;;
3133;SDS011;1577;49.912;10.924;2022-12-18T11:23:36;78.75;;;15.32;;
3133;SDS011;1577;49.912;10.924;2022-12-18T11:26:08;80.50;;;14.63;;
3133;SDS011;1577;49.912;10.924;2022-12-18T11:36:25;77.57;;;13.18;;
3133;SDS011;1577;49.912;10.924;2022-12-18T11:38:56;77.80;;;15.10;;
3133;SDS011;1577;49.912;10.924;2022-12-18T11:42:01;83.80;;;15.15;;
3133;SDS011;1577;49.912;10.924;2022-12-18T11:47:40;80.50;;;15.07;;
3133;SDS011;1577;49.912;10.924;2022-12-18T11:53:11;87.47;;;17.73;;
3133;SDS011;1577;49.912;10.924;2022-12-18T12:01:33;80.22;;;15.13;;
3133;SDS011;1577;49.912;10.924;2022-12-18T12:04:12;86.72;;;17.30;;
3133;SDS011;1577;49.912;10.924;2022-12-18T12:07:06;83.05;;;14.85;;
3133;SDS011;1577;49.912;10.924;2022-12-18T12:10:00;82.18;;;16.13;;
3133;SDS011;1577;49.912;10.924;2022-12-18T12:12:48;81.25;;;15.18;;
3133;SDS011;1577;49.912;10.924;2022-12-18T12:29:47;84.03;;;15.65;;
3133;SDS011;1577;49.912;10.924;2022-12-18T12:38:00;82.55;;;17.45;;
3133;SDS011;1577;49.912;10.924;2022-12-18T12:40:34;82.82;;;16.17;;
3133;SDS011;1577;49.912;10.924;2022-12-18T12:43:12;74.22;;;14.27;;
3133;SDS011;1577;49.912;10.924;2022-12-18T12:51:01;87.38;;;17.48;;
3133;SDS011;1577;49.912;10.924;2022-12-18T12:53:34;86.00;;;17.23;;
3133;SDS011;1577;49.912;10.924;2022-12-18T12:56:02;81.95;;;15.70;;
3133;SDS011;1577;49.912;10.924;2022-12-18T12:58:41;84.88;;;16.98;;
3133;SDS011;1577;49.912;10.924;2022-12-18T13:03:54;76.65;;;15.68;;
3133;SDS011;1577;49.912;10.924;2022-12-18T13:15:33;86.18;;;17.60;;
3133;SDS011;1577;49.912;10.924;2022-12-18T13:25:51;80.57;;;16.52;;
3133;SDS011;1577;49.912;10.924;2022-12-18T13:31:06;85.13;;;16.08;;
3133;SDS011;1577;49.912;10.924;2022-12-18T13:36:35;79.70;;;16.60;;
3133;SDS011;1577;49.912;10.924;2022-12-18T13:39:09;83.45;;;16.90;;
3133;SDS011;1577;49.912;10.924;2022-12-18T13:41:36;86.35;;;19.25;;
3133;SDS011;1577;49.912;10.924;2022-12-18T13:44:22;91.67;;;21.53;;
3133;SDS011;1577;49.912;10.924;2022-12-18T13:46:50;96.35;;;22.13;;
3133;SDS011;1577;49.912;10.924;2022-12-18T13:51:48;94.72;;;23.38;;
3133;SDS011;1577;49.912;10.924;2022-12-18T13:54:24;88.43;;;20.50;;
3133;SDS011;1577;49.912;10.924;2022-12-18T13:57:05;102.32;;;24.95;;
3133;SDS011;1577;49.912;10.924;2022-12-18T13:59:50;113.78;;;29.48;;
3133;SDS011;1577;49.912;10.924;2022-12-18T14:02:26;107.97;;;30.60;;
3133;SDS011;1577;49.912;10.924;2022-12-18T14:04:56;98.22;;;24.80;;
3133;SDS011;1577;49.912;10.924;2022-12-18T14:07:22;92.23;;;23.97;;
3133;SDS011;1577;49.912;10.924;2022-12-18T14:09:51;96.05;;;24.02;;
3133;SDS011;1577;49.912;10.924;2022-12-18T14:12:26;106.90;;;24.95;;
3133;SDS011;1577;49.912;10.924;2022-12-18T14:18:03;105.65;;;26.95;;
3133;SDS011;1577;49.912;10.924;2022-12-18T14:20:45;103.05;;;24.33;;
3133;SDS011;1577;49.912;10.924;2022-12-18T14:23:26;90.75;;;21.15;;
3133;SDS011;1577;49.912;10.924;2022-12-18T14:26:00;90.25;;;21.50;;
3133;SDS011;1577;49.912;10.924;2022-12-18T14:28:46;90.15;;;21.63;;
3133;SDS011;1577;49.912;10.924;2022-12-18T14:31:22;96.87;;;22.87;;
3133;SDS011;1577;49.912;10.924;2022-12-18T14:33:50;88.80;;;22.67;;
3133;SDS011;1577;49.912;10.924;2022-12-18T14:36:21;92.90;;;21.25;;
3133;SDS011;1577;49.912;10.924;2022-12-18T14:38:52;92.78;;;23.52;;
3133;SDS011;1577;49.912;10.924;2022-12-18T14:41:20;91.82;;;21.10;;
3133;SDS011;1577;49.912;10.924;2022-12-18T14:43:47;93.03;;;21.20;;
3133;SDS011;1577;49.912;10.924;2022-12-18T14:49:20;89.65;;;21.40;;
3133;SDS011;1577;49.912;10.924;2022-12-18T14:51:58;92.82;;;21.60;;
3133;SDS011;1577;49.912;10.924;2022-12-18T14:54:26;100.20;;;23.58;;
3133;SDS011;1577;49.912;10.924;2022-12-18T14:57:00;87.53;;;19.83;;
3133;SDS011;1577;49.912;10.924;2022-12-18T14:59:31;94.50;;;20.20;;
3133;SDS011;1577;49.912;10.924;2022-12-18T15:01:58;84.40;;;19.67;;
3133;SDS011;1577;49.912;10.924;2022-12-18T15:04:34;90.90;;;20.65;;
3133;SDS011;1577;49.912;10.924;2022-12-18T15:07:05;88.05;;;18.73;;
3133;SDS011;1577;49.912;10.924;2022-12-18T15:15:01;95.47;;;22.27;;
3133;SDS011;1577;49.912;10.924;2022-12-18T15:17:27;91.93;;;22.65;;
3133;SDS011;1577;49.912;10.924;2022-12-18T15:19:58;90.07;;;20.63;;
3133;SDS011;1577;49.912;10.924;2022-12-18T15:24:53;93.78;;;21.63;;
3133;SDS011;1577;49.912;10.924;2022-12-18T15:27:28;96.22;;;22.75;;
3133;SDS011;1577;49.912;10.924;2022-12-18T15:32:35;95.35;;;22.27;;
3133;SDS011;1577;49.912;10.924;2022-12-18T15:37:34;96.00;;;23.40;;
3133;SDS011;1577;49.912;10.924;2022-12-18T15:39:59;109.70;;;25.63;;
3133;SDS011;1577;49.912;10.924;2022-12-18T15:42:27;107.30;;;27.67;;
3133;SDS011;1577;49.912;10.924;2022-12-18T15:45:11;112.43;;;31.45;;
3133;SDS011;1577;49.912;10.924;2022-12-18T15:47:38;114.47;;;32.92;;
3133;SDS011;1577;49.912;10.924;2022-12-18T15:50:04;100.10;;;26.90;;
3133;SDS011;1577;49.912;10.924;2022-12-18T15:52:31;109.68;;;27.63;;
3133;SDS011;1577;49.912;10.924;2022-12-18T15:55:10;107.05;;;26.50;;
3133;SDS011;1577;49.912;10.924;2022-12-18T15:58:00;99.45;;;24.80;;
3133;SDS011;1577;49.912;10.924;2022-12-18T16:00:26;88.17;;;19.50;;
3133;SDS011;1577;49.912;10.924;2022-12-18T16:02:52;94.32;;;19.73;;
3133;SDS011;1577;49.912;10.924;2022-12-18T16:05:18;88.67;;;19.80;;
3133;SDS011;1577;49.912;10.924;2022-12-18T16:07:47;94.50;;;21.27;;
3133;SDS011;1577;49.912;10.924;2022-12-18T16:10:13;96.22;;;21.35;;
3133;SDS011;1577;49.912;10.924;2022-12-18T16:12:39;99.27;;;24.33;;
3133;SDS011;1577;49.912;10.924;2022-12-18T16:15:06;99.75;;;23.48;;
3133;SDS011;1577;49.912;10.924;2022-12-18T16:17:35;93.35;;;21.80;;
3133;SDS011;1577;49.912;10.924;2022-12-18T16:20:01;94.43;;;22.02;;
3133;SDS011;1577;49.912;10.924;2022-12-18T16:22:30;96.88;;;22.38;;
3133;SDS011;1577;49.912;10.924;2022-12-18T16:24:58;97.70;;;22.17;;
3133;SDS011;1577;49.912;10.924;2022-12-18T16:27:24;103.10;;;23.75;;
3133;SDS011;1577;49.912;10.924;2022-12-18T16:29:50;105.38;;;24.60;;
3133;SDS011;1577;49.912;10.924;2022-12-18T16:32:17;99.33;;;21.30;;
3133;SDS011;1577;49.912;10.924;2022-12-18T16:34:44;99.20;;;23.95;;
3133;SDS011;1577;49.912;10.924;2022-12-18T16:37:11;107.10;;;25.05;;
3133;SDS011;1577;49.912;10.924;2022-12-18T16:39:38;101.85;;;22.65;;
3133;SDS011;1577;49.912;10.924;2022-12-18T16:42:15;98.10;;;25.00;;
3133;SDS011;1577;49.912;10.924;2022-12-18T16:44:44;112.40;;;27.80;;
3133;SDS011;1577;49.912;10.924;2022-12-18T16:47:10;94.55;;;23.73;;
3133;SDS011;1577;49.912;10.924;2022-12-18T16:49:36;108.35;;;26.77;;
3133;SDS011;1577;49.912;10.924;2022-12-18T16:52:03;113.28;;;29.17;;
3133;SDS011;1577;49.912;10.924;2022-12-18T16:54:30;104.38;;;27.13;;
3133;SDS011;1577;49.912;10.924;2022-12-18T16:56:57;105.80;;;25.55;;
3133;SDS011;1577;49.912;10.924;2022-12-18T16:59:24;105.05;;;27.10;;
3133;SDS011;1577;49.912;10.924;2022-12-18T17:01:51;99.20;;;25.83;;
3133;SDS011;1577;49.912;10.924;2022-12-18T17:04:16;102.32;;;25.20;;
3133;SDS011;1577;49.912;10.924;2022-12-18T17:06:43;107.43;;;27.27;;
3133;SDS011;1577;49.912;10.924;2022-12-18T17:09:19;100.57;;;24.90;;
3133;SDS011;1577;49.912;10.924;2022-12-18T17:11:54;109.40;;;25.00;;